Time;durP1;ratioP1;P1;durP2;ratioP2;P2;SDS_P1;SDS_P2;PMS_P1;PMS_P2;Temp;Humidity;BMP_temperature;BMP_pressure;BME280_temperature;BME280_humidity;BME280_pressure;Samples;Min_cycle;Max_cycle;Signal;HPM_P1;HPM_P2
2023/05/21 00:03:32;;;;;;;;;;;17.00;94.70;;;;;;8387473;28;19929;-72
2023/05/21 00:07:34;;;;;;;;;;;17.00;94.60;;;;;;8375412;28;19925;-72
2023/05/21 00:11:36;;;;;;;;;;;17.00;94.80;;;;;;8380183;28;19929;-72
2023/05/21 00:15:37;;;;;;;;;;;17.00;94.70;;;;;;8377554;28;19932;-72
2023/05/21 00:19:39;;;;;;;;;;;17.00;94.70;;;;;;8382821;28;19932;-72
2023/05/21 00:23:41;;;;;;;;;;;17.00;94.90;;;;;;8380769;28;20384;-71
2023/05/21 00:27:43;;;;;;;;;;;17.00;94.90;;;;;;8379820;28;19953;-71
2023/05/21 00:31:44;;;;;;;;;;;17.00;94.90;;;;;;8362160;28;19932;-71
2023/05/21 00:35:46;;;;;;;;;;;17.00;94.90;;;;;;8370111;28;19924;-71
2023/05/21 00:39:48;;;;;;;;;;;17.00;95.00;;;;;;8398039;28;19950;-72
2023/05/21 00:43:51;;;;;;;;;;;17.00;95.00;;;;;;8375582;28;20355;-72
2023/05/21 00:47:53;;;;;;;;;;;17.00;95.10;;;;;;8352016;28;19934;-71
2023/05/21 00:51:55;;;;;;;;;;;17.00;95.10;;;;;;8382534;28;19928;-71
2023/05/21 00:55:57;;;;;;;;;;;16.90;95.10;;;;;;8376390;28;19933;-72
2023/05/21 00:59:58;;;;;;;;;;;16.90;95.10;;;;;;8378438;28;19924;-72
2023/05/21 01:04:00;;;;;;;;;;;16.90;95.20;;;;;;8379621;28;19946;-72
2023/05/21 01:08:02;;;;;;;;;;;16.90;95.30;;;;;;8373153;28;19929;-72
2023/05/21 01:12:04;;;;;;;;;;;16.90;95.30;;;;;;8368499;28;19954;-71
2023/05/21 01:16:07;;;;;;;;;;;16.90;95.40;;;;;;8380753;28;19929;-72
2023/05/21 01:20:09;;;;;;;;;;;16.90;95.30;;;;;;8378547;28;20346;-72
2023/05/21 01:24:11;;;;;;;;;;;16.80;95.30;;;;;;8366303;28;20466;-72
2023/05/21 01:28:13;;;;;;;;;;;16.80;95.30;;;;;;8390477;28;19932;-72
2023/05/21 01:32:20;;;;;;;;;;;16.80;95.30;;;;;;8381462;28;19932;-72
2023/05/21 01:36:25;;;;;;;;;;;16.80;95.40;;;;;;8379880;28;20620;-72
2023/05/21 01:40:57;;;;;;;;;;;16.70;95.60;;;;;;8386854;28;19924;-72
2023/05/21 01:45:00;;;;;;;;;;;16.70;95.50;;;;;;8364635;28;19974;-72
2023/05/21 01:49:02;;;;;;;;;;;16.70;95.70;;;;;;8371977;28;19925;-72
2023/05/21 01:53:04;;;;;;;;;;;16.70;95.60;;;;;;8381611;28;20376;-73
2023/05/21 01:57:06;;;;;;;;;;;16.70;95.80;;;;;;8375658;28;19924;-72
2023/05/21 02:01:08;;;;;;;;;;;16.60;95.70;;;;;;8385891;28;20734;-72
2023/05/21 02:05:09;;;;;;;;;;;16.60;95.70;;;;;;8377723;28;19924;-72
2023/05/21 02:09:11;;;;;;;;;;;16.60;95.80;;;;;;8382205;28;19939;-73
2023/05/21 02:13:13;;;;;;;;;;;16.50;95.80;;;;;;8386310;28;19931;-72
2023/05/21 02:17:16;;;;;;;;;;;16.50;95.80;;;;;;8392177;28;19931;-72
2023/05/21 02:21:19;;;;;;;;;;;16.50;96.00;;;;;;8386809;28;19924;-72
2023/05/21 02:25:21;;;;;;;;;;;16.50;95.90;;;;;;8387506;28;19924;-72
2023/05/21 02:29:22;;;;;;;;;;;16.50;96.00;;;;;;8370146;28;19928;-72
2023/05/21 02:33:24;;;;;;;;;;;16.40;96.00;;;;;;8376449;28;19925;-72
2023/05/21 02:37:27;;;;;;;;;;;16.40;96.00;;;;;;8385686;28;19928;-71
2023/05/21 02:41:28;;;;;;;;;;;16.40;96.10;;;;;;8402321;28;19940;-73
2023/05/21 02:45:30;;;;;;;;;;;16.40;96.20;;;;;;8365234;28;19924;-72
2023/05/21 02:49:32;;;;;;;;;;;16.40;96.20;;;;;;8375639;28;19928;-72
2023/05/21 02:53:33;;;;;;;;;;;16.30;96.20;;;;;;8375437;28;19926;-71
2023/05/21 02:57:35;;;;;;;;;;;16.30;96.30;;;;;;8385156;28;19928;-72
2023/05/21 03:01:37;;;;;;;;;;;16.30;96.50;;;;;;8387182;28;19965;-72
2023/05/21 03:05:38;;;;;;;;;;;16.20;96.60;;;;;;8375638;28;19924;-71
2023/05/21 03:09:40;;;;;;;;;;;16.20;96.80;;;;;;8381113;28;19951;-71
2023/05/21 03:13:42;;;;;;;;;;;16.20;96.70;;;;;;8362538;28;20363;-72
2023/05/21 03:17:44;;;;;;;;;;;16.20;96.80;;;;;;8397160;28;19928;-72
2023/05/21 03:21:47;;;;;;;;;;;16.20;96.80;;;;;;8378484;28;20016;-71
2023/05/21 03:25:49;;;;;;;;;;;16.20;96.80;;;;;;8385086;28;19971;-71
2023/05/21 03:29:53;;;;;;;;;;;16.20;97.20;;;;;;8377600;28;20014;-71
2023/05/21 03:33:55;;;;;;;;;;;16.20;97.20;;;;;;8377667;28;20299;-71
2023/05/21 03:37:57;;;;;;;;;;;16.20;97.10;;;;;;8377632;28;20361;-72
2023/05/21 03:41:58;;;;;;;;;;;16.20;97.30;;;;;;8380556;28;19947;-72
2023/05/21 03:46:00;;;;;;;;;;;16.10;97.30;;;;;;8384506;28;19936;-72
2023/05/21 03:50:02;;;;;;;;;;;16.10;97.50;;;;;;8383818;28;19947;-72
2023/05/21 03:54:04;;;;;;;;;;;16.10;97.50;;;;;;8370699;28;19929;-71
2023/05/21 03:58:06;;;;;;;;;;;16.10;97.40;;;;;;8376399;28;20388;-72
2023/05/21 04:02:08;;;;;;;;;;;16.10;97.70;;;;;;8376000;28;20304;-72
2023/05/21 04:06:09;;;;;;;;;;;16.10;97.70;;;;;;8375692;28;19924;-72
2023/05/21 04:10:11;;;;;;;;;;;16.10;97.70;;;;;;8376663;28;20010;-72
2023/05/21 04:14:13;;;;;;;;;;;16.10;97.90;;;;;;8376587;28;20382;-72
2023/05/21 04:28:18;;;;;;;;;;;16.10;98.10;;;;;;8376692;28;20009;-71
2023/05/21 04:32:20;;;;;;;;;;;16.10;98.10;;;;;;8355883;28;20350;-72
2023/05/21 04:36:23;;;;;;;;;;;16.10;98.40;;;;;;8377408;28;19939;-71
2023/05/21 04:40:25;;;;;;;;;;;16.10;98.60;;;;;;8375680;28;20002;-72
2023/05/21 04:44:27;;;;;;;;;;;16.10;98.50;;;;;;8386851;28;20299;-72
2023/05/21 04:48:28;;;;;;;;;;;16.10;98.50;;;;;;8370258;28;19940;-72
2023/05/21 04:52:30;;;;;;;;;;;16.10;98.60;;;;;;8342186;28;19933;-72
2023/05/21 04:56:32;;;;;;;;;;;16.10;98.70;;;;;;8367835;28;19986;-71
2023/05/21 05:00:36;;;;;;;;;;;16.10;98.60;;;;;;8366754;28;19933;-71
2023/05/21 05:04:38;;;;;;;;;;;16.10;98.70;;;;;;8369168;28;19929;-72
2023/05/21 05:08:40;;;;;;;;;;;16.10;98.90;;;;;;8376100;28;19947;-72
2023/05/21 05:12:42;;;;;;;;;;;16.00;98.80;;;;;;8388671;28;19924;-72
2023/05/21 05:16:46;;;;;;;;;;;16.00;98.80;;;;;;8382720;28;20335;-72
2023/05/21 05:20:48;;;;;;;;;;;16.00;99.10;;;;;;8366043;28;19932;-72
2023/05/21 05:29:53;;;;;;;;;;;16.00;99.10;;;;;;8387396;28;19951;-71
2023/05/21 05:33:55;;;;;;;;;;;16.00;99.20;;;;;;8388959;28;19924;-71
2023/05/21 05:37:57;;;;;;;;;;;16.10;99.40;;;;;;8388640;28;19924;-71
2023/05/21 05:41:58;;;;;;;;;;;16.10;99.60;;;;;;8377032;28;19970;-71
2023/05/21 05:46:00;;;;;;;;;;;16.10;99.50;;;;;;8390302;28;20384;-71
2023/05/21 05:50:02;;;;;;;;;;;16.10;99.50;;;;;;8387127;28;19931;-71
2023/05/21 05:54:03;;;;;;;;;;;16.10;99.80;;;;;;8374572;28;19924;-72
2023/05/21 05:58:05;;;;;;;;;;;16.20;99.90;;;;;;8388573;28;19933;-72
2023/05/21 06:02:07;;;;;;;;;;;16.20;99.90;;;;;;8390398;28;19939;-72
2023/05/21 06:06:09;;;;;;;;;;;16.20;99.90;;;;;;8387489;28;19931;-72
2023/05/21 06:10:10;;;;;;;;;;;16.30;99.90;;;;;;8388804;28;20418;-72
2023/05/21 06:14:12;;;;;;;;;;;16.40;99.90;;;;;;8386037;28;20057;-71
2023/05/21 06:18:14;;;;;;;;;;;16.50;99.90;;;;;;8385368;28;21149;-71
2023/05/21 06:22:16;;;;;;;;;;;16.70;99.90;;;;;;8392942;28;19932;-72
2023/05/21 06:26:18;;;;;;;;;;;16.90;99.90;;;;;;8387724;28;20257;-72
2023/05/21 06:30:20;;;;;;;;;;;17.00;99.90;;;;;;8392852;28;19938;-72
2023/05/21 06:34:22;;;;;;;;;;;17.10;99.90;;;;;;8377625;28;19979;-71
2023/05/21 06:38:23;;;;;;;;;;;17.00;99.90;;;;;;8388634;28;19932;-71
2023/05/21 06:42:25;;;;;;;;;;;17.00;99.90;;;;;;8386476;28;20441;-71
2023/05/21 06:46:26;;;;;;;;;;;17.10;99.90;;;;;;8383989;28;19924;-72
2023/05/21 06:50:28;;;;;;;;;;;17.00;99.90;;;;;;8393701;28;19932;-71
2023/05/21 06:54:30;;;;;;;;;;;17.00;99.90;;;;;;8389060;28;19936;-71
2023/05/21 06:58:32;;;;;;;;;;;17.10;99.90;;;;;;8390030;28;20431;-72
2023/05/21 07:02:33;;;;;;;;;;;17.10;99.90;;;;;;8369815;28;21048;-72
2023/05/21 07:06:36;;;;;;;;;;;17.20;99.90;;;;;;8382499;28;19933;-71
2023/05/21 07:10:38;;;;;;;;;;;17.30;99.90;;;;;;8372872;28;19924;-71
2023/05/21 07:14:40;;;;;;;;;;;17.40;99.90;;;;;;8386952;28;20005;-71
2023/05/21 07:18:41;;;;;;;;;;;17.50;99.90;;;;;;8369762;28;20294;-71
2023/05/21 07:22:43;;;;;;;;;;;17.60;99.90;;;;;;8384064;28;19936;-71
2023/05/21 07:26:45;;;;;;;;;;;17.60;99.90;;;;;;8366336;28;19941;-71
2023/05/21 07:30:47;;;;;;;;;;;17.60;99.90;;;;;;8388426;28;19954;-71
2023/05/21 07:34:48;;;;;;;;;;;17.70;99.90;;;;;;8372509;28;20526;-71
2023/05/21 07:38:51;;;;;;;;;;;17.80;99.90;;;;;;8379776;28;19979;-71
2023/05/21 07:42:53;;;;;;;;;;;17.80;99.90;;;;;;8383964;28;20467;-72
2023/05/21 07:46:55;;;;;;;;;;;17.80;99.90;;;;;;8381090;28;20558;-71
2023/05/21 07:50:57;;;;;;;;;;;17.90;99.90;;;;;;8391496;28;19947;-72
2023/05/21 07:54:59;;;;;;;;;;;17.90;99.90;;;;;;8379005;28;19932;-71
2023/05/21 07:59:01;;;;;;;;;;;17.90;99.90;;;;;;8382502;28;20376;-71
2023/05/21 08:03:04;;;;;;;;;;;18.00;99.90;;;;;;8394799;28;19924;-71
2023/05/21 08:07:06;;;;;;;;;;;18.00;99.90;;;;;;8380822;28;20214;-72
2023/05/21 08:11:07;;;;;;;;;;;18.00;99.90;;;;;;8387915;28;19924;-72
2023/05/21 08:15:09;;;;;;;;;;;18.00;99.90;;;;;;8389082;28;19932;-71
2023/05/21 08:19:11;;;;;;;;;;;18.10;99.90;;;;;;8388374;28;19925;-72
2023/05/21 08:23:13;;;;;;;;;;;18.20;99.90;;;;;;8391281;28;19924;-71
2023/05/21 08:27:15;;;;;;;;;;;18.30;99.90;;;;;;8381300;28;19924;-71
2023/05/21 08:31:17;;;;;;;;;;;18.30;99.90;;;;;;8386955;28;19938;-72
2023/05/21 08:35:18;;;;;;;;;;;18.40;99.90;;;;;;8387359;28;20303;-72
2023/05/21 08:39:20;;;;;;;;;;;18.40;99.90;;;;;;8381992;28;20444;-72
2023/05/21 08:43:23;;;;;;;;;;;18.50;99.90;;;;;;8386971;28;19933;-71
2023/05/21 08:47:26;;;;;;;;;;;18.60;99.90;;;;;;8392928;28;19932;-71
2023/05/21 08:51:29;;;;;;;;;;;18.70;99.90;;;;;;8391462;28;19967;-71
2023/05/21 08:55:31;;;;;;;;;;;18.80;99.90;;;;;;8387344;28;19986;-72
2023/05/21 08:59:34;;;;;;;;;;;19.00;99.90;;;;;;8388789;28;19932;-71
2023/05/21 09:03:38;;;;;;;;;;;19.10;99.90;;;;;;8377818;28;20332;-71
2023/05/21 09:07:49;;;;;;;;;;;19.20;99.90;;;;;;8384963;28;19939;-71
2023/05/21 09:11:53;;;;;;;;;;;19.30;99.90;;;;;;8368335;28;19970;-72
2023/05/21 09:15:54;;;;;;;;;;;19.40;99.90;;;;;;8370161;28;19925;-72
2023/05/21 09:20:15;;;;;;;;;;;19.50;99.90;;;;;;8358764;28;19925;-72
2023/05/21 09:24:20;;;;;;;;;;;19.70;99.90;;;;;;8367240;28;19924;-73
2023/05/21 09:38:43;;;;;;;;;;;19.90;99.90;;;;;;8372740;28;19919;-72
2023/05/21 09:42:48;;;;;;;;;;;20.00;99.90;;;;;;8368676;28;19924;-72
2023/05/21 09:46:50;;;;;;;;;;;20.00;99.90;;;;;;8363967;28;19929;-72
2023/05/21 09:50:51;;;;;;;;;;;20.00;99.90;;;;;;8367738;28;19932;-71
2023/05/21 09:54:53;;;;;;;;;;;20.00;99.90;;;;;;8370675;28;20378;-71
2023/05/21 09:58:55;;;;;;;;;;;20.10;99.90;;;;;;8369310;28;19939;-71
2023/05/21 10:03:00;;;;;;;;;;;20.10;99.90;;;;;;8379032;28;20272;-72
2023/05/21 10:07:02;;;;;;;;;;;20.20;99.90;;;;;;8380448;28;20365;-72
2023/05/21 10:11:04;;;;;;;;;;;20.20;99.90;;;;;;8374960;28;20364;-72
2023/05/21 10:15:07;;;;;;;;;;;20.30;99.90;;;;;;8382768;28;19955;-72
2023/05/21 10:19:09;;;;;;;;;;;20.30;99.90;;;;;;8362713;28;19932;-72
2023/05/21 10:23:11;;;;;;;;;;;20.40;99.90;;;;;;8358179;28;19991;-73
2023/05/21 10:27:13;;;;;;;;;;;20.40;99.90;;;;;;8366264;28;20441;-72
2023/05/21 10:31:15;;;;;;;;;;;20.60;99.90;;;;;;8365076;28;20005;-72
2023/05/21 10:35:17;;;;;;;;;;;20.70;99.90;;;;;;8360231;28;20346;-72
2023/05/21 10:39:20;;;;;;;;;;;20.80;99.90;;;;;;8365077;28;19935;-72
2023/05/21 10:43:21;;;;;;;;;;;20.90;99.90;;;;;;8360353;28;21720;-72
2023/05/21 10:47:37;;;;;;;;;;;21.00;99.90;;;;;;8361434;28;20339;-73
2023/05/21 10:51:57;;;;;;;;;;;21.10;99.90;;;;;;8361294;28;19928;-72
2023/05/21 10:56:18;;;;;;;;;;;21.10;99.90;;;;;;8369875;28;19932;-72
2023/05/21 11:00:20;;;;;;;;;;;21.10;99.90;;;;;;8365999;28;19935;-73
2023/05/21 11:04:22;;;;;;;;;;;21.10;99.90;;;;;;8373531;28;20371;-73
2023/05/21 11:08:30;;;;;;;;;;;21.10;99.90;;;;;;8365667;28;19972;-73
2023/05/21 11:12:33;;;;;;;;;;;21.20;99.90;;;;;;8362119;28;20053;-72
2023/05/21 11:16:35;;;;;;;;;;;21.30;99.90;;;;;;8358098;28;20383;-72
2023/05/21 11:20:37;;;;;;;;;;;21.40;99.90;;;;;;8367003;28;19986;-72
2023/05/21 11:24:40;;;;;;;;;;;21.40;99.90;;;;;;8360899;28;19936;-72
2023/05/21 11:28:42;;;;;;;;;;;21.50;99.90;;;;;;8363005;28;19936;-71
2023/05/21 11:33:22;;;;;;;;;;;21.60;99.90;;;;;;8346434;28;19967;-72
2023/05/21 11:37:32;;;;;;;;;;;21.70;99.90;;;;;;8225585;28;19929;-73
2023/05/21 11:41:52;;;;;;;;;;;21.70;99.90;;;;;;8301557;28;19932;-72
2023/05/21 11:45:54;;;;;;;;;;;21.70;99.90;;;;;;8351472;28;20363;-72
2023/05/21 11:49:57;;;;;;;;;;;21.70;99.90;;;;;;8358385;28;20380;-72
2023/05/21 11:53:58;;;;;;;;;;;21.80;99.90;;;;;;8339699;28;19936;-72
2023/05/21 11:58:00;;;;;;;;;;;21.90;99.90;;;;;;8359269;28;20280;-72
2023/05/21 12:02:02;;;;;;;;;;;21.90;99.90;;;;;;8362863;28;19927;-72
2023/05/21 12:06:05;;;;;;;;;;;21.90;99.90;;;;;;8369915;28;19939;-72
2023/05/21 12:10:07;;;;;;;;;;;22.00;99.90;;;;;;8367281;28;20019;-72
2023/05/21 12:14:09;;;;;;;;;;;22.10;99.90;;;;;;8326236;28;19943;-72
2023/05/21 12:18:13;;;;;;;;;;;22.30;99.90;;;;;;8325860;28;20288;-72
2023/05/21 12:22:15;;;;;;;;;;;22.30;99.90;;;;;;8324692;28;19928;-72
2023/05/21 12:26:17;;;;;;;;;;;22.40;99.90;;;;;;8326483;28;20296;-72
2023/05/21 12:30:19;;;;;;;;;;;22.50;99.90;;;;;;8330590;28;20288;-72
2023/05/21 12:34:36;;;;;;;;;;;22.50;99.90;;;;;;8326637;28;19929;-72
2023/05/21 12:38:38;;;;;;;;;;;22.40;99.90;;;;;;8342451;28;19956;-71
2023/05/21 12:42:39;;;;;;;;;;;22.40;99.90;;;;;;8332542;28;19978;-72
2023/05/21 12:46:41;;;;;;;;;;;22.40;99.90;;;;;;8325236;28;19925;-72
2023/05/21 12:50:43;;;;;;;;;;;22.50;99.90;;;;;;8328819;28;19925;-72
2023/05/21 12:54:47;;;;;;;;;;;22.50;99.90;;;;;;8330993;28;19929;-72
2023/05/21 12:58:49;;;;;;;;;;;22.50;99.90;;;;;;8335356;28;19979;-73
2023/05/21 13:02:51;;;;;;;;;;;22.60;99.90;;;;;;8326038;28;19925;-73
2023/05/21 13:06:53;;;;;;;;;;;22.60;99.90;;;;;;8321780;28;20336;-72
2023/05/21 13:10:54;;;;;;;;;;;22.60;99.90;;;;;;8326775;28;19933;-73
2023/05/21 13:14:56;;;;;;;;;;;22.80;99.90;;;;;;8356870;28;19976;-73
2023/05/21 13:18:58;;;;;;;;;;;22.80;99.90;;;;;;8368483;28;19936;-73
2023/05/21 13:23:00;;;;;;;;;;;22.90;99.90;;;;;;8363077;28;19937;-74
2023/05/21 13:27:04;;;;;;;;;;;22.90;99.90;;;;;;8360972;28;20283;-73
2023/05/21 13:31:06;;;;;;;;;;;23.00;99.90;;;;;;8364691;28;19929;-73
2023/05/21 13:35:08;;;;;;;;;;;23.00;99.90;;;;;;8358245;28;19933;-74
2023/05/21 13:39:10;;;;;;;;;;;22.90;99.90;;;;;;8375203;28;19987;-73
2023/05/21 13:43:12;;;;;;;;;;;22.90;99.90;;;;;;8359876;28;19935;-73
2023/05/21 13:47:14;;;;;;;;;;;22.90;99.90;;;;;;8364190;28;19925;-73
2023/05/21 13:51:15;;;;;;;;;;;22.90;99.90;;;;;;8366318;28;19933;-73
2023/05/21 13:55:31;;;;;;;;;;;22.90;99.90;;;;;;8384557;28;19935;-73
2023/05/21 13:59:33;;;;;;;;;;;22.90;99.90;;;;;;8366640;28;19932;-73
2023/05/21 14:03:34;;;;;;;;;;;22.90;99.90;;;;;;8367864;28;19929;-73
2023/05/21 14:07:36;;;;;;;;;;;22.90;99.90;;;;;;8375249;28;19933;-73
2023/05/21 14:11:38;;;;;;;;;;;23.00;99.90;;;;;;8370521;28;19925;-73
2023/05/21 14:15:41;;;;;;;;;;;23.00;99.90;;;;;;8367021;28;19928;-73
2023/05/21 14:19:46;;;;;;;;;;;23.10;99.90;;;;;;8351781;28;21352;-74
2023/05/21 14:23:48;;;;;;;;;;;23.30;99.90;;;;;;8348666;28;19928;-73
2023/05/21 14:27:50;;;;;;;;;;;23.50;99.90;;;;;;8370187;28;20288;-73
2023/05/21 14:31:52;;;;;;;;;;;23.60;99.90;;;;;;8367936;28;19944;-73
2023/05/21 14:35:53;;;;;;;;;;;23.70;99.90;;;;;;8363839;28;19968;-73
2023/05/21 14:39:55;;;;;;;;;;;23.80;99.90;;;;;;8364717;28;19974;-72
2023/05/21 14:43:57;;;;;;;;;;;23.90;99.90;;;;;;8363951;28;19929;-73
2023/05/21 14:47:58;;;;;;;;;;;24.00;99.90;;;;;;8367341;28;20376;-73
2023/05/21 14:52:00;;;;;;;;;;;24.00;99.90;;;;;;8368448;28;19932;-73
2023/05/21 14:56:02;;;;;;;;;;;24.00;99.90;;;;;;8368175;28;19932;-73
2023/05/21 15:00:04;;;;;;;;;;;24.00;99.90;;;;;;8371869;28;19945;-73
2023/05/21 15:04:06;;;;;;;;;;;24.00;99.90;;;;;;8346214;28;19935;-73
2023/05/21 15:08:08;;;;;;;;;;;24.00;99.90;;;;;;8350815;28;19935;-73
2023/05/21 15:12:10;;;;;;;;;;;24.00;99.90;;;;;;8377913;28;20300;-74
2023/05/21 15:16:11;;;;;;;;;;;24.00;99.90;;;;;;8362420;28;20263;-73
2023/05/21 15:20:13;;;;;;;;;;;24.00;99.90;;;;;;8363486;28;20245;-72
2023/05/21 15:24:15;;;;;;;;;;;24.10;99.90;;;;;;8341060;28;20828;-73
2023/05/21 15:28:16;;;;;;;;;;;24.20;99.90;;;;;;8362567;28;20064;-73
2023/05/21 15:32:21;;;;;;;;;;;24.30;99.90;;;;;;8366941;28;20280;-72
2023/05/21 15:36:23;;;;;;;;;;;24.30;99.90;;;;;;8363002;28;20013;-71
2023/05/21 15:40:25;;;;;;;;;;;24.30;99.90;;;;;;8362135;28;19971;-71
2023/05/21 15:44:27;;;;;;;;;;;24.50;99.90;;;;;;8362325;28;20369;-72
2023/05/21 15:48:29;;;;;;;;;;;24.70;99.90;;;;;;8380569;28;19924;-72
2023/05/21 15:52:31;;;;;;;;;;;25.10;99.90;;;;;;8368081;28;19925;-72
2023/05/21 15:56:32;;;;;;;;;;;25.50;99.90;;;;;;8357182;28;20363;-71
2023/05/21 16:00:34;;;;;;;;;;;25.90;99.90;;;;;;8359098;28;19924;-72
2023/05/21 16:04:36;;;;;;;;;;;26.20;99.90;;;;;;8360068;28;20460;-71
2023/05/21 16:08:37;;;;;;;;;;;26.40;99.90;;;;;;8365937;28;19933;-72
2023/05/21 16:12:39;;;;;;;;;;;26.70;99.90;;;;;;8364020;28;19935;-72
2023/05/21 16:16:41;;;;;;;;;;;26.90;99.90;;;;;;8355270;28;19928;-73
2023/05/21 16:20:43;;;;;;;;;;;27.10;99.90;;;;;;8358730;28;19924;-73
2023/05/21 16:24:46;;;;;;;;;;;27.10;99.90;;;;;;8359103;28;19925;-72
2023/05/21 16:28:48;;;;;;;;;;;27.10;99.90;;;;;;8352802;28;19955;-72
2023/05/21 16:32:49;;;;;;;;;;;27.20;99.90;;;;;;8371121;28;19931;-73
2023/05/21 16:36:51;;;;;;;;;;;27.30;99.90;;;;;;8360322;28;19964;-73
2023/05/21 16:40:53;;;;;;;;;;;27.30;99.90;;;;;;8359751;28;19929;-73
2023/05/21 16:44:55;;;;;;;;;;;27.30;99.90;;;;;;8356037;28;19925;-73
2023/05/21 16:48:56;;;;;;;;;;;27.30;99.90;;;;;;8361625;28;20018;-73
2023/05/21 16:53:01;;;;;;;;;;;27.30;99.90;;;;;;8359112;28;20371;-73
2023/05/21 16:57:02;;;;;;;;;;;27.20;99.90;;;;;;8349291;28;19924;-73
2023/05/21 17:01:04;;;;;;;;;;;27.00;99.90;;;;;;8364205;28;20217;-73
2023/05/21 17:05:06;;;;;;;;;;;27.00;99.90;;;;;;8354094;28;20013;-73
2023/05/21 17:09:08;;;;;;;;;;;26.70;99.90;;;;;;8376362;28;20694;-73
2023/05/21 17:13:09;;;;;;;;;;;26.40;99.90;;;;;;8359934;28;19931;-73
2023/05/21 17:17:22;;;;;;;;;;;26.00;99.90;;;;;;8362976;28;19986;-73
2023/05/21 17:21:25;;;;;;;;;;;25.70;99.90;;;;;;8363405;28;20019;-73
2023/05/21 17:25:27;;;;;;;;;;;25.50;99.90;;;;;;8365428;28;20368;-73
2023/05/21 17:29:28;;;;;;;;;;;25.20;99.90;;;;;;8371753;28;19932;-74
2023/05/21 17:33:30;;;;;;;;;;;25.10;99.90;;;;;;8382965;28;19932;-73
2023/05/21 17:37:32;;;;;;;;;;;24.90;99.90;;;;;;8368917;28;20362;-73
2023/05/21 17:41:33;;;;;;;;;;;24.80;99.90;;;;;;8368348;28;19933;-73
2023/05/21 17:45:35;;;;;;;;;;;24.70;99.90;;;;;;8354468;28;19969;-73
2023/05/21 17:49:37;;;;;;;;;;;24.50;99.90;;;;;;8366764;28;19985;-73
2023/05/21 17:53:39;;;;;;;;;;;24.40;99.90;;;;;;8379234;28;19944;-73
2023/05/21 17:57:41;;;;;;;;;;;24.30;99.90;;;;;;8367491;28;20553;-73
2023/05/21 18:01:43;;;;;;;;;;;24.20;99.90;;;;;;8352671;28;19940;-73
2023/05/21 18:05:44;;;;;;;;;;;24.00;99.90;;;;;;8342308;28;19937;-74
2023/05/21 18:09:46;;;;;;;;;;;23.80;99.90;;;;;;8363025;28;19959;-73
2023/05/21 18:13:48;;;;;;;;;;;23.80;99.90;;;;;;8362966;28;19940;-74
2023/05/21 18:17:49;;;;;;;;;;;23.70;99.90;;;;;;8364844;28;19931;-74
2023/05/21 18:21:51;;;;;;;;;;;23.50;99.90;;;;;;8360547;28;19937;-74
2023/05/21 18:25:53;;;;;;;;;;;23.50;99.90;;;;;;8373888;28;19928;-74
2023/05/21 18:29:55;;;;;;;;;;;23.30;99.90;;;;;;8360974;28;19932;-74
2023/05/21 18:33:57;;;;;;;;;;;23.30;99.90;;;;;;8376515;28;19932;-73
2023/05/21 18:37:58;;;;;;;;;;;23.20;99.90;;;;;;8375790;28;19939;-73
2023/05/21 18:42:01;;;;;;;;;;;23.20;99.90;;;;;;8369213;28;20248;-74
2023/05/21 18:46:13;;;;;;;;;;;23.00;99.90;;;;;;8365544;28;20038;-73
2023/05/21 18:50:15;;;;;;;;;;;22.90;99.90;;;;;;8362374;28;19929;-73
2023/05/21 18:54:17;;;;;;;;;;;22.80;99.90;;;;;;8368846;28;19929;-73
2023/05/21 18:58:18;;;;;;;;;;;22.70;99.90;;;;;;8364240;28;19924;-74
2023/05/21 19:02:20;;;;;;;;;;;22.60;99.90;;;;;;8365834;28;20391;-74
2023/05/21 19:06:24;;;;;;;;;;;22.50;99.90;;;;;;8359697;28;19951;-74
2023/05/21 19:10:25;;;;;;;;;;;22.50;99.90;;;;;;8366990;28;20379;-74
2023/05/21 19:14:27;;;;;;;;;;;22.40;99.90;;;;;;8364372;28;20668;-75
2023/05/21 19:18:31;;;;;;;;;;;22.30;99.90;;;;;;8370461;28;19925;-74
2023/05/21 19:22:32;;;;;;;;;;;22.20;99.90;;;;;;8364937;28;20377;-74
2023/05/21 19:26:34;;;;;;;;;;;22.10;99.90;;;;;;8363132;28;20380;-74
2023/05/21 19:30:36;;;;;;;;;;;22.00;99.90;;;;;;8360416;28;19983;-75
2023/05/21 19:34:38;;;;;;;;;;;21.90;99.90;;;;;;8360389;28;19929;-74
2023/05/21 19:38:47;;;;;;;;;;;21.70;99.90;;;;;;8357604;28;19924;-74
2023/05/21 19:42:48;;;;;;;;;;;21.60;99.90;;;;;;8345744;28;19929;-74
2023/05/21 19:46:50;;;;;;;;;;;21.50;99.90;;;;;;8349212;28;20238;-74
2023/05/21 19:50:52;;;;;;;;;;;21.50;99.90;;;;;;8361998;28;19924;-75
2023/05/21 20:00:00;;;;;;;;;;;21.20;99.90;;;;;;8368975;28;19982;-75
2023/05/21 20:04:02;;;;;;;;;;;21.00;99.90;;;;;;8368403;28;19933;-75
2023/05/21 20:08:04;;;;;;;;;;;21.00;99.90;;;;;;8349428;28;20273;-74
2023/05/21 20:12:05;;;;;;;;;;;20.90;99.90;;;;;;8368356;28;19929;-74
2023/05/21 20:16:09;;;;;;;;;;;20.80;99.90;;;;;;8359646;28;19939;-74
2023/05/21 20:20:11;;;;;;;;;;;20.70;99.90;;;;;;8363782;28;19932;-75
2023/05/21 20:34:16;;;;;;;;;;;20.50;99.90;;;;;;8361838;28;19920;-74
2023/05/21 20:38:19;;;;;;;;;;;20.50;99.90;;;;;;8366336;28;19932;-74
2023/05/21 20:42:22;;;;;;;;;;;20.40;99.90;;;;;;8366624;28;24208;-74
2023/05/21 20:46:24;;;;;;;;;;;20.30;99.90;;;;;;8366300;28;19935;-74
2023/05/21 20:50:27;;;;;;;;;;;20.30;99.90;;;;;;8364268;28;19928;-74
2023/05/21 20:54:29;;;;;;;;;;;20.30;99.90;;;;;;8364994;28;19925;-74
2023/05/21 20:58:32;;;;;;;;;;;20.20;99.90;;;;;;8367519;28;19924;-74
2023/05/21 21:02:37;;;;;;;;;;;20.20;99.90;;;;;;8381004;28;19936;-74
2023/05/21 21:06:39;;;;;;;;;;;20.10;99.90;;;;;;8395720;28;19932;-75
2023/05/21 21:10:41;;;;;;;;;;;20.10;99.90;;;;;;8380799;28;20023;-74
2023/05/21 21:14:43;;;;;;;;;;;20.00;99.90;;;;;;8385575;28;20273;-74
2023/05/21 21:18:45;;;;;;;;;;;20.00;99.90;;;;;;8398079;28;19978;-74
2023/05/21 21:22:48;;;;;;;;;;;19.90;99.90;;;;;;8382074;28;19928;-74
2023/05/21 21:26:50;;;;;;;;;;;19.90;99.90;;;;;;8399179;28;20288;-74
2023/05/21 21:30:51;;;;;;;;;;;19.80;99.90;;;;;;8399795;28;19932;-74
2023/05/21 21:34:53;;;;;;;;;;;19.80;99.90;;;;;;8387077;28;20319;-74
2023/05/21 21:38:55;;;;;;;;;;;19.70;99.90;;;;;;8397765;28;19924;-74
2023/05/21 21:42:57;;;;;;;;;;;19.70;99.90;;;;;;8390661;28;19928;-74
2023/05/21 21:46:58;;;;;;;;;;;19.70;99.90;;;;;;8381619;28;19924;-74
2023/05/21 21:51:00;;;;;;;;;;;19.60;99.90;;;;;;8398722;28;19986;-74
2023/05/21 21:55:02;;;;;;;;;;;19.50;99.90;;;;;;8394770;28;20375;-74
2023/05/21 21:59:04;;;;;;;;;;;19.50;99.90;;;;;;8400481;28;19977;-73
2023/05/21 22:03:05;;;;;;;;;;;19.40;99.90;;;;;;8395687;28;20014;-74
2023/05/21 22:07:09;;;;;;;;;;;19.30;99.90;;;;;;8384495;28;19928;-73
2023/05/21 22:11:11;;;;;;;;;;;19.30;99.90;;;;;;8401060;28;20284;-73
2023/05/21 22:15:22;;;;;;;;;;;19.20;99.90;;;;;;8396498;28;19925;-73
2023/05/21 22:19:24;;;;;;;;;;;19.20;99.90;;;;;;8398554;28;20335;-73
2023/05/21 22:23:26;;;;;;;;;;;19.10;99.90;;;;;;8396022;28;19924;-73
2023/05/21 22:27:27;;;;;;;;;;;19.00;99.90;;;;;;8398789;28;20008;-73
2023/05/21 22:31:29;;;;;;;;;;;19.00;99.90;;;;;;8396834;28;20014;-73
2023/05/21 22:35:31;;;;;;;;;;;18.80;99.90;;;;;;8397199;28;19928;-73
2023/05/21 22:39:33;;;;;;;;;;;18.80;99.90;;;;;;8390896;28;20368;-72
2023/05/21 22:43:35;;;;;;;;;;;18.70;99.90;;;;;;8390473;28;19932;-73
2023/05/21 22:47:38;;;;;;;;;;;18.60;99.90;;;;;;8401313;28;20403;-73
2023/05/21 22:51:43;;;;;;;;;;;18.50;99.90;;;;;;8388949;28;19950;-73
2023/05/21 22:55:45;;;;;;;;;;;18.40;99.90;;;;;;8390542;28;19963;-73
2023/05/21 22:59:47;;;;;;;;;;;18.40;99.90;;;;;;8384377;28;20406;-72
2023/05/21 23:03:49;;;;;;;;;;;18.30;99.90;;;;;;8375549;28;19994;-73
2023/05/21 23:07:51;;;;;;;;;;;18.30;99.90;;;;;;8386759;28;19932;-73
2023/05/21 23:11:53;;;;;;;;;;;18.30;99.90;;;;;;8371522;28;19928;-73
2023/05/21 23:15:57;;;;;;;;;;;18.20;99.90;;;;;;8388589;28;20363;-73
2023/05/21 23:19:59;;;;;;;;;;;18.20;99.90;;;;;;8395989;28;19924;-72
2023/05/21 23:24:01;;;;;;;;;;;18.30;99.90;;;;;;8397344;28;20356;-73
2023/05/21 23:28:02;;;;;;;;;;;18.30;99.90;;;;;;8376448;28;20371;-72
2023/05/21 23:32:04;;;;;;;;;;;18.20;99.90;;;;;;8388900;28;19923;-73
2023/05/21 23:36:06;;;;;;;;;;;18.20;99.90;;;;;;8397451;28;20023;-73
2023/05/21 23:40:08;;;;;;;;;;;18.20;99.90;;;;;;8379987;28;19928;-72
2023/05/21 23:44:11;;;;;;;;;;;18.20;99.90;;;;;;8371866;28;19973;-73
2023/05/21 23:48:13;;;;;;;;;;;18.20;99.90;;;;;;8385082;28;19924;-73
2023/05/21 23:52:17;;;;;;;;;;;18.30;99.90;;;;;;8378384;28;20372;-74
2023/05/21 23:56:18;;;;;;;;;;;18.30;99.90;;;;;;8389155;28;19931;-72
